sensor_id;sensor_type;location;lat;lon;timestamp;P1;durP1;ratioP1;P2;durP2;ratioP2
12332;SDS011;6232;48.094;11.288;2024-03-06T00:02:26;21.90;;;15.60;;
12332;SDS011;6232;48.094;11.288;2024-03-06T00:05:11;21.10;;;14.07;;
12332;SDS011;6232;48.094;11.288;2024-03-06T00:07:57;21.80;;;13.47;;
12332;SDS011;6232;48.094;11.288;2024-03-06T00:10:43;23.10;;;14.20;;
12332;SDS011;6232;48.094;11.288;2024-03-06T00:13:30;22.83;;;15.03;;
12332;SDS011;6232;48.094;11.288;2024-03-06T00:16:16;22.40;;;14.10;;
12332;SDS011;6232;48.094;11.288;2024-03-06T00:19:01;23.83;;;15.10;;
12332;SDS011;6232;48.094;11.288;2024-03-06T00:21:47;28.20;;;14.77;;
12332;SDS011;6232;48.094;11.288;2024-03-06T00:24:33;27.10;;;15.80;;
12332;SDS011;6232;48.094;11.288;2024-03-06T00:27:18;30.43;;;15.07;;
12332;SDS011;6232;48.094;11.288;2024-03-06T00:30:04;22.03;;;15.53;;
12332;SDS011;6232;48.094;11.288;2024-03-06T00:32:49;24.30;;;16.30;;
12332;SDS011;6232;48.094;11.288;2024-03-06T00:35:35;24.67;;;15.43;;
12332;SDS011;6232;48.094;11.288;2024-03-06T00:38:20;29.50;;;17.27;;
12332;SDS011;6232;48.094;11.288;2024-03-06T00:41:06;24.97;;;16.30;;
12332;SDS011;6232;48.094;11.288;2024-03-06T00:43:52;24.33;;;14.97;;
12332;SDS011;6232;48.094;11.288;2024-03-06T00:46:38;19.73;;;14.50;;
12332;SDS011;6232;48.094;11.288;2024-03-06T00:49:23;20.90;;;14.13;;
12332;SDS011;6232;48.094;11.288;2024-03-06T00:52:09;29.07;;;16.13;;
12332;SDS011;6232;48.094;11.288;2024-03-06T00:54:55;24.20;;;16.37;;
12332;SDS011;6232;48.094;11.288;2024-03-06T00:57:41;22.60;;;15.20;;
12332;SDS011;6232;48.094;11.288;2024-03-06T01:00:27;21.60;;;14.20;;
12332;SDS011;6232;48.094;11.288;2024-03-06T01:03:13;24.73;;;13.97;;
12332;SDS011;6232;48.094;11.288;2024-03-06T01:05:58;22.63;;;15.20;;
12332;SDS011;6232;48.094;11.288;2024-03-06T01:08:44;23.00;;;14.50;;
12332;SDS011;6232;48.094;11.288;2024-03-06T01:11:29;21.57;;;15.70;;
12332;SDS011;6232;48.094;11.288;2024-03-06T01:14:15;25.63;;;15.70;;
12332;SDS011;6232;48.094;11.288;2024-03-06T01:17:01;29.87;;;15.87;;
12332;SDS011;6232;48.094;11.288;2024-03-06T01:19:47;24.17;;;14.47;;
12332;SDS011;6232;48.094;11.288;2024-03-06T01:22:33;28.40;;;17.63;;
12332;SDS011;6232;48.094;11.288;2024-03-06T01:25:19;24.60;;;15.50;;
12332;SDS011;6232;48.094;11.288;2024-03-06T01:28:05;30.83;;;16.47;;
12332;SDS011;6232;48.094;11.288;2024-03-06T01:30:50;24.03;;;16.47;;
12332;SDS011;6232;48.094;11.288;2024-03-06T01:33:36;20.30;;;15.13;;
12332;SDS011;6232;48.094;11.288;2024-03-06T01:36:22;26.93;;;18.03;;
12332;SDS011;6232;48.094;11.288;2024-03-06T01:39:07;24.47;;;16.90;;
12332;SDS011;6232;48.094;11.288;2024-03-06T01:41:53;22.17;;;16.43;;
12332;SDS011;6232;48.094;11.288;2024-03-06T01:44:38;33.40;;;15.40;;
12332;SDS011;6232;48.094;11.288;2024-03-06T01:47:24;24.10;;;14.53;;
12332;SDS011;6232;48.094;11.288;2024-03-06T01:50:10;23.53;;;14.00;;
12332;SDS011;6232;48.094;11.288;2024-03-06T01:52:55;25.03;;;14.87;;
12332;SDS011;6232;48.094;11.288;2024-03-06T01:55:41;21.33;;;13.70;;
12332;SDS011;6232;48.094;11.288;2024-03-06T01:58:27;24.40;;;14.30;;
12332;SDS011;6232;48.094;11.288;2024-03-06T02:01:13;22.93;;;13.50;;
12332;SDS011;6232;48.094;11.288;2024-03-06T02:04:00;21.50;;;14.83;;
12332;SDS011;6232;48.094;11.288;2024-03-06T02:06:46;21.00;;;12.97;;
12332;SDS011;6232;48.094;11.288;2024-03-06T02:09:31;19.03;;;12.57;;
12332;SDS011;6232;48.094;11.288;2024-03-06T02:12:17;21.17;;;11.73;;
12332;SDS011;6232;48.094;11.288;2024-03-06T02:15:02;20.40;;;13.90;;
12332;SDS011;6232;48.094;11.288;2024-03-06T02:17:48;20.80;;;12.77;;
12332;SDS011;6232;48.094;11.288;2024-03-06T02:20:34;22.27;;;14.10;;
12332;SDS011;6232;48.094;11.288;2024-03-06T02:23:20;20.33;;;12.20;;
12332;SDS011;6232;48.094;11.288;2024-03-06T02:26:07;24.13;;;15.10;;
12332;SDS011;6232;48.094;11.288;2024-03-06T02:28:53;20.60;;;13.17;;
12332;SDS011;6232;48.094;11.288;2024-03-06T02:31:39;21.20;;;14.87;;
12332;SDS011;6232;48.094;11.288;2024-03-06T02:34:25;22.07;;;13.53;;
12332;SDS011;6232;48.094;11.288;2024-03-06T02:37:10;19.77;;;13.03;;
12332;SDS011;6232;48.094;11.288;2024-03-06T02:39:56;23.10;;;14.10;;
12332;SDS011;6232;48.094;11.288;2024-03-06T02:42:42;22.70;;;13.20;;
12332;SDS011;6232;48.094;11.288;2024-03-06T02:45:27;19.03;;;12.40;;
12332;SDS011;6232;48.094;11.288;2024-03-06T02:48:13;22.10;;;13.00;;
12332;SDS011;6232;48.094;11.288;2024-03-06T02:50:59;25.23;;;13.83;;
12332;SDS011;6232;48.094;11.288;2024-03-06T02:53:44;21.50;;;15.07;;
12332;SDS011;6232;48.094;11.288;2024-03-06T02:56:30;23.10;;;13.20;;
12332;SDS011;6232;48.094;11.288;2024-03-06T02:59:15;19.03;;;12.90;;
12332;SDS011;6232;48.094;11.288;2024-03-06T03:02:01;18.67;;;12.70;;
12332;SDS011;6232;48.094;11.288;2024-03-06T03:04:49;18.47;;;13.30;;
12332;SDS011;6232;48.094;11.288;2024-03-06T03:07:34;23.03;;;13.50;;
12332;SDS011;6232;48.094;11.288;2024-03-06T03:10:20;18.37;;;12.50;;
12332;SDS011;6232;48.094;11.288;2024-03-06T03:13:05;17.70;;;12.00;;
12332;SDS011;6232;48.094;11.288;2024-03-06T03:15:51;19.90;;;13.00;;
12332;SDS011;6232;48.094;11.288;2024-03-06T03:18:36;11.60;;;9.63;;
12332;SDS011;6232;48.094;11.288;2024-03-06T03:21:22;16.13;;;11.97;;
12332;SDS011;6232;48.094;11.288;2024-03-06T03:24:07;17.90;;;12.20;;
12332;SDS011;6232;48.094;11.288;2024-03-06T03:26:53;18.47;;;10.57;;
12332;SDS011;6232;48.094;11.288;2024-03-06T03:29:39;17.03;;;11.53;;
12332;SDS011;6232;48.094;11.288;2024-03-06T03:32:25;16.33;;;11.13;;
12332;SDS011;6232;48.094;11.288;2024-03-06T03:35:10;17.67;;;10.53;;
12332;SDS011;6232;48.094;11.288;2024-03-06T03:37:56;17.57;;;12.10;;
12332;SDS011;6232;48.094;11.288;2024-03-06T03:40:42;20.13;;;11.97;;
12332;SDS011;6232;48.094;11.288;2024-03-06T03:43:28;17.23;;;10.97;;
12332;SDS011;6232;48.094;11.288;2024-03-06T03:46:13;14.43;;;9.67;;
12332;SDS011;6232;48.094;11.288;2024-03-06T03:48:59;15.10;;;10.70;;
12332;SDS011;6232;48.094;11.288;2024-03-06T03:51:45;14.30;;;10.43;;
12332;SDS011;6232;48.094;11.288;2024-03-06T03:54:30;12.30;;;8.47;;
12332;SDS011;6232;48.094;11.288;2024-03-06T03:57:16;14.13;;;9.87;;
12332;SDS011;6232;48.094;11.288;2024-03-06T04:00:02;17.67;;;9.80;;
12332;SDS011;6232;48.094;11.288;2024-03-06T04:02:48;14.50;;;9.60;;
12332;SDS011;6232;48.094;11.288;2024-03-06T04:05:34;13.27;;;8.80;;
12332;SDS011;6232;48.094;11.288;2024-03-06T04:08:19;15.80;;;9.07;;
12332;SDS011;6232;48.094;11.288;2024-03-06T04:11:05;14.23;;;9.73;;
12332;SDS011;6232;48.094;11.288;2024-03-06T04:13:51;14.13;;;9.23;;
12332;SDS011;6232;48.094;11.288;2024-03-06T04:16:37;15.40;;;9.13;;
12332;SDS011;6232;48.094;11.288;2024-03-06T04:19:23;13.70;;;8.10;;
12332;SDS011;6232;48.094;11.288;2024-03-06T04:22:09;14.50;;;9.40;;
12332;SDS011;6232;48.094;11.288;2024-03-06T04:24:54;13.33;;;8.33;;
12332;SDS011;6232;48.094;11.288;2024-03-06T04:27:41;11.50;;;8.07;;
12332;SDS011;6232;48.094;11.288;2024-03-06T04:30:26;10.57;;;7.93;;
12332;SDS011;6232;48.094;11.288;2024-03-06T04:33:12;12.30;;;8.00;;
12332;SDS011;6232;48.094;11.288;2024-03-06T04:36:01;12.43;;;8.03;;
12332;SDS011;6232;48.094;11.288;2024-03-06T04:38:47;10.50;;;7.80;;
12332;SDS011;6232;48.094;11.288;2024-03-06T04:41:33;12.13;;;7.73;;
12332;SDS011;6232;48.094;11.288;2024-03-06T04:44:19;12.10;;;6.97;;
12332;SDS011;6232;48.094;11.288;2024-03-06T04:47:04;14.30;;;7.50;;
12332;SDS011;6232;48.094;11.288;2024-03-06T04:49:50;13.43;;;8.13;;
12332;SDS011;6232;48.094;11.288;2024-03-06T04:52:36;11.10;;;7.60;;
12332;SDS011;6232;48.094;11.288;2024-03-06T04:55:21;10.80;;;7.60;;
12332;SDS011;6232;48.094;11.288;2024-03-06T04:58:07;10.17;;;7.33;;
12332;SDS011;6232;48.094;11.288;2024-03-06T05:00:53;12.23;;;7.90;;
12332;SDS011;6232;48.094;11.288;2024-03-06T05:03:39;18.10;;;6.83;;
12332;SDS011;6232;48.094;11.288;2024-03-06T05:06:25;11.27;;;7.10;;
12332;SDS011;6232;48.094;11.288;2024-03-06T05:09:10;10.53;;;8.00;;
12332;SDS011;6232;48.094;11.288;2024-03-06T05:11:56;11.83;;;7.07;;
12332;SDS011;6232;48.094;11.288;2024-03-06T05:14:42;11.73;;;7.03;;
12332;SDS011;6232;48.094;11.288;2024-03-06T05:17:27;13.33;;;7.10;;
12332;SDS011;6232;48.094;11.288;2024-03-06T05:20:13;13.53;;;7.90;;
12332;SDS011;6232;48.094;11.288;2024-03-06T05:22:59;15.87;;;8.17;;
12332;SDS011;6232;48.094;11.288;2024-03-06T05:25:45;13.90;;;8.30;;
12332;SDS011;6232;48.094;11.288;2024-03-06T05:28:30;10.97;;;6.87;;
12332;SDS011;6232;48.094;11.288;2024-03-06T05:31:17;11.03;;;6.73;;
12332;SDS011;6232;48.094;11.288;2024-03-06T05:34:05;11.87;;;7.73;;
12332;SDS011;6232;48.094;11.288;2024-03-06T05:36:51;14.07;;;7.97;;
12332;SDS011;6232;48.094;11.288;2024-03-06T05:39:36;11.00;;;7.50;;
12332;SDS011;6232;48.094;11.288;2024-03-06T05:42:27;11.17;;;7.30;;
12332;SDS011;6232;48.094;11.288;2024-03-06T05:45:13;9.63;;;7.23;;
12332;SDS011;6232;48.094;11.288;2024-03-06T05:47:58;10.17;;;7.50;;
12332;SDS011;6232;48.094;11.288;2024-03-06T05:50:44;16.20;;;8.00;;
12332;SDS011;6232;48.094;11.288;2024-03-06T05:53:30;11.63;;;7.27;;
12332;SDS011;6232;48.094;11.288;2024-03-06T05:56:16;15.00;;;8.57;;
12332;SDS011;6232;48.094;11.288;2024-03-06T05:59:02;12.30;;;7.80;;
12332;SDS011;6232;48.094;11.288;2024-03-06T06:01:53;9.70;;;6.83;;
12332;SDS011;6232;48.094;11.288;2024-03-06T06:04:38;11.07;;;7.40;;
12332;SDS011;6232;48.094;11.288;2024-03-06T06:07:24;10.40;;;6.20;;
12332;SDS011;6232;48.094;11.288;2024-03-06T06:10:10;11.60;;;7.70;;
12332;SDS011;6232;48.094;11.288;2024-03-06T06:12:55;9.90;;;6.40;;
12332;SDS011;6232;48.094;11.288;2024-03-06T06:15:41;11.90;;;7.90;;
12332;SDS011;6232;48.094;11.288;2024-03-06T06:18:27;9.17;;;6.87;;
12332;SDS011;6232;48.094;11.288;2024-03-06T06:21:12;13.57;;;7.17;;
12332;SDS011;6232;48.094;11.288;2024-03-06T06:23:58;9.13;;;6.90;;
12332;SDS011;6232;48.094;11.288;2024-03-06T06:26:43;11.90;;;7.70;;
12332;SDS011;6232;48.094;11.288;2024-03-06T06:29:29;11.27;;;7.63;;
12332;SDS011;6232;48.094;11.288;2024-03-06T06:32:14;13.90;;;7.47;;
12332;SDS011;6232;48.094;11.288;2024-03-06T06:35:00;13.57;;;7.37;;
12332;SDS011;6232;48.094;11.288;2024-03-06T06:37:46;10.60;;;7.27;;
12332;SDS011;6232;48.094;11.288;2024-03-06T06:40:31;13.30;;;6.90;;
12332;SDS011;6232;48.094;11.288;2024-03-06T06:43:17;15.70;;;8.13;;
12332;SDS011;6232;48.094;11.288;2024-03-06T06:46:02;10.50;;;7.53;;
12332;SDS011;6232;48.094;11.288;2024-03-06T06:48:50;10.97;;;6.83;;
12332;SDS011;6232;48.094;11.288;2024-03-06T06:51:35;8.03;;;6.33;;
12332;SDS011;6232;48.094;11.288;2024-03-06T06:54:21;12.60;;;7.30;;
12332;SDS011;6232;48.094;11.288;2024-03-06T06:57:06;9.63;;;6.87;;
12332;SDS011;6232;48.094;11.288;2024-03-06T06:59:53;11.57;;;7.37;;
12332;SDS011;6232;48.094;11.288;2024-03-06T07:02:39;11.13;;;7.63;;
12332;SDS011;6232;48.094;11.288;2024-03-06T07:05:26;7.63;;;6.30;;
12332;SDS011;6232;48.094;11.288;2024-03-06T07:08:11;10.20;;;6.83;;
12332;SDS011;6232;48.094;11.288;2024-03-06T07:10:57;9.63;;;6.43;;
12332;SDS011;6232;48.094;11.288;2024-03-06T07:13:42;9.90;;;6.47;;
12332;SDS011;6232;48.094;11.288;2024-03-06T07:16:28;7.90;;;5.80;;
12332;SDS011;6232;48.094;11.288;2024-03-06T07:19:14;8.73;;;6.20;;
12332;SDS011;6232;48.094;11.288;2024-03-06T07:21:59;10.63;;;6.90;;
12332;SDS011;6232;48.094;11.288;2024-03-06T07:24:45;8.83;;;7.10;;
12332;SDS011;6232;48.094;11.288;2024-03-06T07:27:30;10.50;;;6.67;;
12332;SDS011;6232;48.094;11.288;2024-03-06T07:30:16;7.03;;;6.10;;
12332;SDS011;6232;48.094;11.288;2024-03-06T07:33:02;8.07;;;5.00;;
12332;SDS011;6232;48.094;11.288;2024-03-06T07:35:47;9.53;;;6.20;;
12332;SDS011;6232;48.094;11.288;2024-03-06T07:38:33;8.20;;;5.80;;
12332;SDS011;6232;48.094;11.288;2024-03-06T07:41:18;8.63;;;6.40;;
12332;SDS011;6232;48.094;11.288;2024-03-06T07:44:04;6.40;;;5.63;;
12332;SDS011;6232;48.094;11.288;2024-03-06T07:46:49;6.47;;;5.50;;
12332;SDS011;6232;48.094;11.288;2024-03-06T07:49:35;9.90;;;6.00;;
12332;SDS011;6232;48.094;11.288;2024-03-06T07:52:21;10.87;;;7.13;;
12332;SDS011;6232;48.094;11.288;2024-03-06T07:55:06;6.30;;;5.40;;
12332;SDS011;6232;48.094;11.288;2024-03-06T07:57:52;6.80;;;5.00;;
12332;SDS011;6232;48.094;11.288;2024-03-06T08:00:37;8.80;;;4.90;;
12332;SDS011;6232;48.094;11.288;2024-03-06T08:03:24;7.57;;;6.13;;
12332;SDS011;6232;48.094;11.288;2024-03-06T08:06:10;6.60;;;5.20;;
12332;SDS011;6232;48.094;11.288;2024-03-06T08:08:55;6.83;;;5.30;;
12332;SDS011;6232;48.094;11.288;2024-03-06T08:11:41;7.23;;;5.80;;
12332;SDS011;6232;48.094;11.288;2024-03-06T08:14:27;10.60;;;6.67;;
12332;SDS011;6232;48.094;11.288;2024-03-06T08:17:13;9.77;;;5.87;;
12332;SDS011;6232;48.094;11.288;2024-03-06T08:19:58;10.90;;;7.90;;
12332;SDS011;6232;48.094;11.288;2024-03-06T08:22:44;7.77;;;6.53;;
12332;SDS011;6232;48.094;11.288;2024-03-06T08:25:30;7.70;;;6.90;;
12332;SDS011;6232;48.094;11.288;2024-03-06T08:28:18;7.03;;;6.20;;
12332;SDS011;6232;48.094;11.288;2024-03-06T08:31:03;8.30;;;6.73;;
12332;SDS011;6232;48.094;11.288;2024-03-06T08:33:49;10.63;;;5.80;;
12332;SDS011;6232;48.094;11.288;2024-03-06T08:36:34;6.57;;;5.27;;
12332;SDS011;6232;48.094;11.288;2024-03-06T08:39:20;7.13;;;5.63;;
12332;SDS011;6232;48.094;11.288;2024-03-06T08:42:06;6.70;;;5.40;;
12332;SDS011;6232;48.094;11.288;2024-03-06T08:44:51;6.30;;;5.70;;
12332;SDS011;6232;48.094;11.288;2024-03-06T08:47:38;6.43;;;5.50;;
12332;SDS011;6232;48.094;11.288;2024-03-06T08:50:23;5.83;;;4.67;;
12332;SDS011;6232;48.094;11.288;2024-03-06T08:53:09;6.10;;;4.70;;
12332;SDS011;6232;48.094;11.288;2024-03-06T08:55:54;7.83;;;5.00;;
12332;SDS011;6232;48.094;11.288;2024-03-06T08:58:40;7.00;;;4.90;;
12332;SDS011;6232;48.094;11.288;2024-03-06T09:01:25;8.03;;;6.00;;
12332;SDS011;6232;48.094;11.288;2024-03-06T09:04:11;7.77;;;5.90;;
12332;SDS011;6232;48.094;11.288;2024-03-06T09:06:57;7.23;;;5.33;;
12332;SDS011;6232;48.094;11.288;2024-03-06T09:09:42;6.90;;;5.67;;
12332;SDS011;6232;48.094;11.288;2024-03-06T09:12:28;6.70;;;4.57;;
12332;SDS011;6232;48.094;11.288;2024-03-06T09:15:14;5.33;;;4.83;;
12332;SDS011;6232;48.094;11.288;2024-03-06T09:18:00;7.80;;;5.17;;
12332;SDS011;6232;48.094;11.288;2024-03-06T09:20:46;5.90;;;5.00;;
12332;SDS011;6232;48.094;11.288;2024-03-06T09:23:31;4.83;;;4.03;;
12332;SDS011;6232;48.094;11.288;2024-03-06T09:26:18;11.03;;;6.03;;
12332;SDS011;6232;48.094;11.288;2024-03-06T09:29:04;5.00;;;4.47;;
12332;SDS011;6232;48.094;11.288;2024-03-06T09:31:50;10.20;;;4.80;;
12332;SDS011;6232;48.094;11.288;2024-03-06T09:34:35;6.43;;;5.83;;
12332;SDS011;6232;48.094;11.288;2024-03-06T09:37:21;5.77;;;4.53;;
12332;SDS011;6232;48.094;11.288;2024-03-06T09:40:07;5.67;;;4.60;;
12332;SDS011;6232;48.094;11.288;2024-03-06T09:42:53;5.13;;;4.50;;
12332;SDS011;6232;48.094;11.288;2024-03-06T09:45:39;4.97;;;4.50;;
12332;SDS011;6232;48.094;11.288;2024-03-06T09:48:25;5.93;;;5.03;;
12332;SDS011;6232;48.094;11.288;2024-03-06T09:51:10;5.50;;;4.73;;
12332;SDS011;6232;48.094;11.288;2024-03-06T09:53:57;4.90;;;4.40;;
12332;SDS011;6232;48.094;11.288;2024-03-06T09:56:43;7.67;;;5.43;;
12332;SDS011;6232;48.094;11.288;2024-03-06T09:59:30;6.10;;;5.50;;
12332;SDS011;6232;48.094;11.288;2024-03-06T10:03:16;4.57;;;4.17;;
12332;SDS011;6232;48.094;11.288;2024-03-06T10:05:31;6.33;;;5.03;;
12332;SDS011;6232;48.094;11.288;2024-03-06T10:08:19;6.80;;;4.33;;
12332;SDS011;6232;48.094;11.288;2024-03-06T10:11:05;4.70;;;4.30;;
12332;SDS011;6232;48.094;11.288;2024-03-06T10:13:52;5.67;;;5.17;;
12332;SDS011;6232;48.094;11.288;2024-03-06T10:16:38;6.13;;;4.80;;
12332;SDS011;6232;48.094;11.288;2024-03-06T10:19:36;4.40;;;4.10;;
12332;SDS011;6232;48.094;11.288;2024-03-06T10:22:22;4.43;;;3.77;;
12332;SDS011;6232;48.094;11.288;2024-03-06T10:25:09;5.33;;;4.73;;
12332;SDS011;6232;48.094;11.288;2024-03-06T10:28:08;6.87;;;5.40;;
12332;SDS011;6232;48.094;11.288;2024-03-06T10:31:02;4.70;;;4.20;;
12332;SDS011;6232;48.094;11.288;2024-03-06T10:33:48;6.03;;;4.60;;
12332;SDS011;6232;48.094;11.288;2024-03-06T10:36:33;4.83;;;4.40;;
12332;SDS011;6232;48.094;11.288;2024-03-06T10:39:19;4.40;;;4.07;;
12332;SDS011;6232;48.094;11.288;2024-03-06T10:42:06;5.63;;;5.13;;
12332;SDS011;6232;48.094;11.288;2024-03-06T10:44:52;7.33;;;5.77;;
12332;SDS011;6232;48.094;11.288;2024-03-06T10:47:39;7.43;;;4.83;;
12332;SDS011;6232;48.094;11.288;2024-03-06T10:50:25;5.50;;;4.57;;
12332;SDS011;6232;48.094;11.288;2024-03-06T10:53:14;5.17;;;4.73;;
12332;SDS011;6232;48.094;11.288;2024-03-06T10:56:00;5.53;;;4.97;;
12332;SDS011;6232;48.094;11.288;2024-03-06T10:58:47;5.37;;;4.40;;
12332;SDS011;6232;48.094;11.288;2024-03-06T11:01:36;6.60;;;4.90;;
12332;SDS011;6232;48.094;11.288;2024-03-06T11:04:25;5.10;;;4.70;;
12332;SDS011;6232;48.094;11.288;2024-03-06T11:07:13;3.87;;;3.40;;
12332;SDS011;6232;48.094;11.288;2024-03-06T11:09:59;4.60;;;4.20;;
12332;SDS011;6232;48.094;11.288;2024-03-06T11:12:45;4.00;;;3.70;;
12332;SDS011;6232;48.094;11.288;2024-03-06T11:15:31;3.87;;;3.57;;
12332;SDS011;6232;48.094;11.288;2024-03-06T11:24:17;5.80;;;3.73;;
12332;SDS011;6232;48.094;11.288;2024-03-06T11:27:04;5.77;;;5.17;;
12332;SDS011;6232;48.094;11.288;2024-03-06T11:30:03;4.03;;;3.67;;
12332;SDS011;6232;48.094;11.288;2024-03-06T11:32:58;4.10;;;3.80;;
12332;SDS011;6232;48.094;11.288;2024-03-06T11:38:55;4.83;;;4.03;;
12332;SDS011;6232;48.094;11.288;2024-03-06T11:44:29;3.53;;;3.20;;
12332;SDS011;6232;48.094;11.288;2024-03-06T11:47:15;3.60;;;3.30;;
12332;SDS011;6232;48.094;11.288;2024-03-06T11:50:00;3.80;;;3.30;;
12332;SDS011;6232;48.094;11.288;2024-03-06T11:52:46;4.77;;;3.67;;
12332;SDS011;6232;48.094;11.288;2024-03-06T11:55:32;4.03;;;3.47;;
12332;SDS011;6232;48.094;11.288;2024-03-06T11:58:18;3.83;;;3.40;;
12332;SDS011;6232;48.094;11.288;2024-03-06T12:01:03;3.80;;;3.50;;
12332;SDS011;6232;48.094;11.288;2024-03-06T12:03:49;3.30;;;3.00;;
12332;SDS011;6232;48.094;11.288;2024-03-06T12:06:35;3.10;;;2.90;;
12332;SDS011;6232;48.094;11.288;2024-03-06T12:09:21;4.77;;;3.90;;
12332;SDS011;6232;48.094;11.288;2024-03-06T12:12:06;3.90;;;3.57;;
12332;SDS011;6232;48.094;11.288;2024-03-06T12:14:58;3.53;;;3.07;;
12332;SDS011;6232;48.094;11.288;2024-03-06T12:17:49;3.63;;;3.33;;
12332;SDS011;6232;48.094;11.288;2024-03-06T12:20:40;3.40;;;3.10;;
12332;SDS011;6232;48.094;11.288;2024-03-06T12:23:25;3.87;;;3.57;;
12332;SDS011;6232;48.094;11.288;2024-03-06T12:26:11;3.20;;;2.90;;
12332;SDS011;6232;48.094;11.288;2024-03-06T12:29:18;4.10;;;3.60;;
12332;SDS011;6232;48.094;11.288;2024-03-06T12:32:03;4.83;;;3.37;;
12332;SDS011;6232;48.094;11.288;2024-03-06T12:34:58;5.17;;;4.23;;
12332;SDS011;6232;48.094;11.288;2024-03-06T12:37:45;6.30;;;4.70;;
12332;SDS011;6232;48.094;11.288;2024-03-06T12:40:30;19.37;;;8.83;;
12332;SDS011;6232;48.094;11.288;2024-03-06T12:43:16;47.67;;;20.03;;
12332;SDS011;6232;48.094;11.288;2024-03-06T12:46:01;7.30;;;5.10;;
12332;SDS011;6232;48.094;11.288;2024-03-06T12:48:48;4.00;;;3.70;;
12332;SDS011;6232;48.094;11.288;2024-03-06T12:51:33;3.70;;;3.40;;
12332;SDS011;6232;48.094;11.288;2024-03-06T12:54:19;3.33;;;3.13;;
12332;SDS011;6232;48.094;11.288;2024-03-06T12:57:04;3.40;;;3.10;;
12332;SDS011;6232;48.094;11.288;2024-03-06T12:59:50;4.43;;;3.70;;
12332;SDS011;6232;48.094;11.288;2024-03-06T13:02:35;3.83;;;3.43;;
12332;SDS011;6232;48.094;11.288;2024-03-06T13:05:21;3.73;;;3.30;;
12332;SDS011;6232;48.094;11.288;2024-03-06T13:08:06;4.30;;;3.53;;
12332;SDS011;6232;48.094;11.288;2024-03-06T13:10:52;3.50;;;3.20;;
12332;SDS011;6232;48.094;11.288;2024-03-06T13:13:37;3.47;;;3.20;;
12332;SDS011;6232;48.094;11.288;2024-03-06T13:16:23;3.93;;;3.63;;
12332;SDS011;6232;48.094;11.288;2024-03-06T13:19:09;2.97;;;2.77;;
12332;SDS011;6232;48.094;11.288;2024-03-06T13:21:56;3.27;;;3.07;;
12332;SDS011;6232;48.094;11.288;2024-03-06T13:24:42;2.83;;;2.60;;
12332;SDS011;6232;48.094;11.288;2024-03-06T13:27:27;3.43;;;3.20;;
12332;SDS011;6232;48.094;11.288;2024-03-06T13:30:13;2.63;;;2.43;;
12332;SDS011;6232;48.094;11.288;2024-03-06T13:32:59;3.10;;;2.80;;
12332;SDS011;6232;48.094;11.288;2024-03-06T13:35:44;3.13;;;2.93;;
12332;SDS011;6232;48.094;11.288;2024-03-06T13:38:30;3.27;;;2.97;;
12332;SDS011;6232;48.094;11.288;2024-03-06T13:41:15;2.97;;;2.77;;
12332;SDS011;6232;48.094;11.288;2024-03-06T13:44:01;3.27;;;2.97;;
12332;SDS011;6232;48.094;11.288;2024-03-06T13:46:47;3.10;;;2.80;;
12332;SDS011;6232;48.094;11.288;2024-03-06T13:49:39;6.10;;;3.37;;
12332;SDS011;6232;48.094;11.288;2024-03-06T13:52:25;4.17;;;3.77;;
12332;SDS011;6232;48.094;11.288;2024-03-06T13:55:11;3.37;;;2.90;;
12332;SDS011;6232;48.094;11.288;2024-03-06T13:57:57;3.30;;;3.10;;
12332;SDS011;6232;48.094;11.288;2024-03-06T14:00:43;2.87;;;2.67;;
12332;SDS011;6232;48.094;11.288;2024-03-06T14:03:29;2.87;;;2.67;;
12332;SDS011;6232;48.094;11.288;2024-03-06T14:06:15;3.00;;;2.80;;
12332;SDS011;6232;48.094;11.288;2024-03-06T14:09:02;3.60;;;3.17;;
12332;SDS011;6232;48.094;11.288;2024-03-06T14:11:47;3.47;;;2.70;;
12332;SDS011;6232;48.094;11.288;2024-03-06T14:14:33;3.57;;;3.27;;
12332;SDS011;6232;48.094;11.288;2024-03-06T14:17:19;4.60;;;3.00;;
12332;SDS011;6232;48.094;11.288;2024-03-06T14:20:05;4.20;;;3.60;;
12332;SDS011;6232;48.094;11.288;2024-03-06T14:22:50;2.83;;;2.63;;
12332;SDS011;6232;48.094;11.288;2024-03-06T14:25:36;3.10;;;2.90;;
12332;SDS011;6232;48.094;11.288;2024-03-06T14:28:23;3.37;;;3.07;;
12332;SDS011;6232;48.094;11.288;2024-03-06T14:31:10;3.00;;;2.80;;
12332;SDS011;6232;48.094;11.288;2024-03-06T14:33:56;3.50;;;3.20;;
12332;SDS011;6232;48.094;11.288;2024-03-06T14:36:42;3.20;;;3.00;;
12332;SDS011;6232;48.094;11.288;2024-03-06T14:39:27;3.10;;;2.90;;
12332;SDS011;6232;48.094;11.288;2024-03-06T14:42:13;2.70;;;2.50;;
12332;SDS011;6232;48.094;11.288;2024-03-06T14:45:00;3.17;;;2.97;;
12332;SDS011;6232;48.094;11.288;2024-03-06T14:47:46;2.83;;;2.63;;
12332;SDS011;6232;48.094;11.288;2024-03-06T14:50:31;2.67;;;2.47;;
12332;SDS011;6232;48.094;11.288;2024-03-06T14:53:17;3.50;;;3.27;;
12332;SDS011;6232;48.094;11.288;2024-03-06T14:56:02;2.90;;;2.70;;
12332;SDS011;6232;48.094;11.288;2024-03-06T14:58:48;2.70;;;2.50;;
12332;SDS011;6232;48.094;11.288;2024-03-06T15:01:34;2.27;;;2.17;;
12332;SDS011;6232;48.094;11.288;2024-03-06T15:04:19;7.53;;;3.10;;
12332;SDS011;6232;48.094;11.288;2024-03-06T15:07:06;3.10;;;2.90;;
12332;SDS011;6232;48.094;11.288;2024-03-06T15:09:52;3.37;;;3.07;;
12332;SDS011;6232;48.094;11.288;2024-03-06T15:12:38;3.13;;;2.93;;
12332;SDS011;6232;48.094;11.288;2024-03-06T15:15:24;2.80;;;2.60;;
12332;SDS011;6232;48.094;11.288;2024-03-06T15:18:09;3.07;;;2.67;;
12332;SDS011;6232;48.094;11.288;2024-03-06T15:20:55;3.17;;;2.87;;
12332;SDS011;6232;48.094;11.288;2024-03-06T15:23:40;3.10;;;2.90;;
12332;SDS011;6232;48.094;11.288;2024-03-06T15:26:26;4.17;;;3.23;;
12332;SDS011;6232;48.094;11.288;2024-03-06T15:29:11;3.20;;;3.00;;
12332;SDS011;6232;48.094;11.288;2024-03-06T15:31:57;3.20;;;2.97;;
12332;SDS011;6232;48.094;11.288;2024-03-06T15:34:44;3.20;;;2.90;;
12332;SDS011;6232;48.094;11.288;2024-03-06T15:37:30;3.07;;;2.87;;
12332;SDS011;6232;48.094;11.288;2024-03-06T15:40:15;5.20;;;3.13;;
12332;SDS011;6232;48.094;11.288;2024-03-06T15:43:01;3.43;;;3.00;;
12332;SDS011;6232;48.094;11.288;2024-03-06T15:45:46;3.23;;;3.03;;
12332;SDS011;6232;48.094;11.288;2024-03-06T15:48:32;3.13;;;2.83;;
12332;SDS011;6232;48.094;11.288;2024-03-06T15:51:18;3.40;;;3.10;;
12332;SDS011;6232;48.094;11.288;2024-03-06T15:54:04;3.80;;;3.50;;
12332;SDS011;6232;48.094;11.288;2024-03-06T15:56:50;3.60;;;3.30;;
12332;SDS011;6232;48.094;11.288;2024-03-06T15:59:36;3.13;;;2.93;;
12332;SDS011;6232;48.094;11.288;2024-03-06T16:02:21;3.20;;;3.00;;
12332;SDS011;6232;48.094;11.288;2024-03-06T16:05:09;3.20;;;3.00;;
12332;SDS011;6232;48.094;11.288;2024-03-06T16:07:55;3.53;;;3.23;;
12332;SDS011;6232;48.094;11.288;2024-03-06T16:10:42;3.50;;;3.20;;
12332;SDS011;6232;48.094;11.288;2024-03-06T16:13:28;4.43;;;3.90;;
12332;SDS011;6232;48.094;11.288;2024-03-06T16:16:13;2.87;;;2.60;;
12332;SDS011;6232;48.094;11.288;2024-03-06T16:18:59;5.00;;;4.50;;
12332;SDS011;6232;48.094;11.288;2024-03-06T16:21:44;5.60;;;4.30;;
12332;SDS011;6232;48.094;11.288;2024-03-06T16:24:30;5.80;;;3.80;;
12332;SDS011;6232;48.094;11.288;2024-03-06T16:27:16;3.70;;;3.40;;
12332;SDS011;6232;48.094;11.288;2024-03-06T16:30:01;3.50;;;3.20;;
12332;SDS011;6232;48.094;11.288;2024-03-06T16:32:47;4.17;;;3.80;;
12332;SDS011;6232;48.094;11.288;2024-03-06T16:35:32;4.77;;;3.70;;
12332;SDS011;6232;48.094;11.288;2024-03-06T16:38:18;4.50;;;3.80;;
12332;SDS011;6232;48.094;11.288;2024-03-06T16:41:05;3.77;;;3.43;;
12332;SDS011;6232;48.094;11.288;2024-03-06T16:43:50;4.60;;;4.17;;